sensor_id;sensor_type;location;lat;lon;timestamp;P1;durP1;ratioP1;P2;durP2;ratioP2
10920;SDS011;5513;50.580;8.818;2023-02-26T00:01:48;3.70;;;2.10;;
10920;SDS011;5513;50.580;8.818;2023-02-26T00:04:16;5.67;;;2.10;;
10920;SDS011;5513;50.580;8.818;2023-02-26T00:06:44;8.77;;;2.20;;
10920;SDS011;5513;50.580;8.818;2023-02-26T00:09:23;6.10;;;2.00;;
10920;SDS011;5513;50.580;8.818;2023-02-26T00:11:52;6.60;;;2.20;;
10920;SDS011;5513;50.580;8.818;2023-02-26T00:14:21;4.50;;;2.07;;
10920;SDS011;5513;50.580;8.818;2023-02-26T00:16:56;4.10;;;1.70;;
10920;SDS011;5513;50.580;8.818;2023-02-26T00:19:35;6.70;;;2.10;;
10920;SDS011;5513;50.580;8.818;2023-02-26T00:22:04;5.67;;;1.97;;
10920;SDS011;5513;50.580;8.818;2023-02-26T00:24:34;4.77;;;2.30;;
10920;SDS011;5513;50.580;8.818;2023-02-26T00:27:02;4.07;;;1.77;;
10920;SDS011;5513;50.580;8.818;2023-02-26T00:29:31;5.70;;;1.90;;
10920;SDS011;5513;50.580;8.818;2023-02-26T00:32:00;6.40;;;2.33;;
10920;SDS011;5513;50.580;8.818;2023-02-26T00:34:29;5.63;;;2.20;;
10920;SDS011;5513;50.580;8.818;2023-02-26T00:37:01;8.33;;;2.10;;
10920;SDS011;5513;50.580;8.818;2023-02-26T00:39:40;4.97;;;1.90;;
10920;SDS011;5513;50.580;8.818;2023-02-26T00:42:16;5.10;;;2.10;;
10920;SDS011;5513;50.580;8.818;2023-02-26T00:44:45;5.67;;;1.97;;
10920;SDS011;5513;50.580;8.818;2023-02-26T00:47:16;7.03;;;1.70;;
10920;SDS011;5513;50.580;8.818;2023-02-26T00:50:00;4.43;;;1.90;;
10920;SDS011;5513;50.580;8.818;2023-02-26T00:52:38;3.97;;;1.83;;
10920;SDS011;5513;50.580;8.818;2023-02-26T00:55:16;4.50;;;1.60;;
10920;SDS011;5513;50.580;8.818;2023-02-26T00:57:46;4.17;;;2.13;;
10920;SDS011;5513;50.580;8.818;2023-02-26T01:00:14;3.23;;;1.87;;
10920;SDS011;5513;50.580;8.818;2023-02-26T01:02:44;4.03;;;1.80;;
10920;SDS011;5513;50.580;8.818;2023-02-26T01:05:14;3.93;;;1.57;;
10920;SDS011;5513;50.580;8.818;2023-02-26T01:07:45;3.67;;;1.57;;
10920;SDS011;5513;50.580;8.818;2023-02-26T01:10:21;4.17;;;1.40;;
10920;SDS011;5513;50.580;8.818;2023-02-26T01:12:51;4.83;;;1.60;;
10920;SDS011;5513;50.580;8.818;2023-02-26T01:15:22;6.73;;;1.63;;
10920;SDS011;5513;50.580;8.818;2023-02-26T01:17:52;3.67;;;1.50;;
10920;SDS011;5513;50.580;8.818;2023-02-26T01:20:25;2.77;;;1.50;;
10920;SDS011;5513;50.580;8.818;2023-02-26T01:22:58;5.17;;;1.87;;
10920;SDS011;5513;50.580;8.818;2023-02-26T01:25:34;4.13;;;1.70;;
10920;SDS011;5513;50.580;8.818;2023-02-26T01:28:06;5.53;;;2.00;;
10920;SDS011;5513;50.580;8.818;2023-02-26T01:30:35;4.37;;;1.63;;
10920;SDS011;5513;50.580;8.818;2023-02-26T01:33:06;5.10;;;1.90;;
10920;SDS011;5513;50.580;8.818;2023-02-26T01:35:42;5.63;;;1.90;;
10920;SDS011;5513;50.580;8.818;2023-02-26T01:38:16;3.60;;;1.67;;
10920;SDS011;5513;50.580;8.818;2023-02-26T01:41:05;9.33;;;2.13;;
10920;SDS011;5513;50.580;8.818;2023-02-26T01:43:42;4.40;;;1.97;;
10920;SDS011;5513;50.580;8.818;2023-02-26T01:46:17;5.80;;;1.83;;
10920;SDS011;5513;50.580;8.818;2023-02-26T01:48:53;3.40;;;2.00;;
10920;SDS011;5513;50.580;8.818;2023-02-26T01:51:42;3.93;;;1.90;;
10920;SDS011;5513;50.580;8.818;2023-02-26T01:54:14;5.80;;;1.93;;
10920;SDS011;5513;50.580;8.818;2023-02-26T01:56:48;5.37;;;2.10;;
10920;SDS011;5513;50.580;8.818;2023-02-26T01:59:18;5.17;;;1.93;;
10920;SDS011;5513;50.580;8.818;2023-02-26T02:01:51;8.27;;;2.30;;
10920;SDS011;5513;50.580;8.818;2023-02-26T02:04:20;5.47;;;2.33;;
10920;SDS011;5513;50.580;8.818;2023-02-26T02:06:52;5.60;;;2.27;;
10920;SDS011;5513;50.580;8.818;2023-02-26T02:09:25;4.20;;;2.03;;
10920;SDS011;5513;50.580;8.818;2023-02-26T02:12:01;5.23;;;2.20;;
10920;SDS011;5513;50.580;8.818;2023-02-26T02:14:41;4.27;;;2.17;;
10920;SDS011;5513;50.580;8.818;2023-02-26T02:17:17;5.10;;;2.23;;
10920;SDS011;5513;50.580;8.818;2023-02-26T02:19:54;5.27;;;2.27;;
10920;SDS011;5513;50.580;8.818;2023-02-26T02:28:57;8.67;;;1.80;;
10920;SDS011;5513;50.580;8.818;2023-02-26T02:31:56;3.93;;;1.90;;
10920;SDS011;5513;50.580;8.818;2023-02-26T02:34:28;6.17;;;2.27;;
10920;SDS011;5513;50.580;8.818;2023-02-26T02:37:04;4.43;;;2.37;;
10920;SDS011;5513;50.580;8.818;2023-02-26T02:39:39;4.73;;;1.97;;
10920;SDS011;5513;50.580;8.818;2023-02-26T02:42:16;5.43;;;2.47;;
10920;SDS011;5513;50.580;8.818;2023-02-26T02:44:50;6.33;;;2.40;;
10920;SDS011;5513;50.580;8.818;2023-02-26T02:47:27;4.07;;;2.23;;
10920;SDS011;5513;50.580;8.818;2023-02-26T02:50:03;4.63;;;2.10;;
10920;SDS011;5513;50.580;8.818;2023-02-26T02:52:35;3.43;;;2.50;;
10920;SDS011;5513;50.580;8.818;2023-02-26T02:55:09;6.57;;;2.97;;
10920;SDS011;5513;50.580;8.818;2023-02-26T02:57:44;6.17;;;2.50;;
10920;SDS011;5513;50.580;8.818;2023-02-26T03:00:17;7.07;;;2.50;;
10920;SDS011;5513;50.580;8.818;2023-02-26T03:02:52;8.23;;;2.80;;
10920;SDS011;5513;50.580;8.818;2023-02-26T03:05:26;4.13;;;2.80;;
10920;SDS011;5513;50.580;8.818;2023-02-26T03:07:55;5.80;;;2.20;;
10920;SDS011;5513;50.580;8.818;2023-02-26T03:10:26;3.87;;;2.20;;
10920;SDS011;5513;50.580;8.818;2023-02-26T03:12:55;6.30;;;2.40;;
10920;SDS011;5513;50.580;8.818;2023-02-26T03:15:25;4.23;;;2.30;;
10920;SDS011;5513;50.580;8.818;2023-02-26T03:18:05;5.23;;;2.40;;
10920;SDS011;5513;50.580;8.818;2023-02-26T03:20:45;6.03;;;2.57;;
10920;SDS011;5513;50.580;8.818;2023-02-26T03:23:23;5.17;;;2.50;;
10920;SDS011;5513;50.580;8.818;2023-02-26T03:26:01;3.73;;;2.03;;
10920;SDS011;5513;50.580;8.818;2023-02-26T03:28:38;5.63;;;1.93;;
10920;SDS011;5513;50.580;8.818;2023-02-26T03:31:12;5.23;;;2.60;;
10920;SDS011;5513;50.580;8.818;2023-02-26T03:33:51;5.57;;;2.27;;
10920;SDS011;5513;50.580;8.818;2023-02-26T03:36:26;4.57;;;2.00;;
10920;SDS011;5513;50.580;8.818;2023-02-26T03:39:00;5.53;;;2.40;;
10920;SDS011;5513;50.580;8.818;2023-02-26T03:41:36;3.17;;;1.67;;
10920;SDS011;5513;50.580;8.818;2023-02-26T03:44:12;2.97;;;1.80;;
10920;SDS011;5513;50.580;8.818;2023-02-26T03:46:48;3.53;;;1.73;;
10920;SDS011;5513;50.580;8.818;2023-02-26T03:49:27;4.80;;;2.00;;
10920;SDS011;5513;50.580;8.818;2023-02-26T03:51:59;7.93;;;2.00;;
10920;SDS011;5513;50.580;8.818;2023-02-26T03:54:31;3.83;;;1.80;;
10920;SDS011;5513;50.580;8.818;2023-02-26T03:57:02;4.43;;;1.70;;
10920;SDS011;5513;50.580;8.818;2023-02-26T03:59:30;4.70;;;2.10;;
10920;SDS011;5513;50.580;8.818;2023-02-26T04:02:02;4.87;;;1.97;;
10920;SDS011;5513;50.580;8.818;2023-02-26T04:04:38;4.73;;;1.73;;
10920;SDS011;5513;50.580;8.818;2023-02-26T04:07:09;5.20;;;2.17;;
10920;SDS011;5513;50.580;8.818;2023-02-26T04:09:40;4.43;;;1.80;;
10920;SDS011;5513;50.580;8.818;2023-02-26T04:12:10;2.17;;;1.77;;
10920;SDS011;5513;50.580;8.818;2023-02-26T04:14:39;3.97;;;1.97;;
10920;SDS011;5513;50.580;8.818;2023-02-26T04:17:08;3.87;;;1.53;;
10920;SDS011;5513;50.580;8.818;2023-02-26T04:19:38;2.93;;;1.73;;
10920;SDS011;5513;50.580;8.818;2023-02-26T04:22:06;3.80;;;1.70;;
10920;SDS011;5513;50.580;8.818;2023-02-26T04:24:34;5.80;;;2.10;;
10920;SDS011;5513;50.580;8.818;2023-02-26T04:27:03;4.13;;;1.80;;
10920;SDS011;5513;50.580;8.818;2023-02-26T04:29:31;3.13;;;1.60;;
10920;SDS011;5513;50.580;8.818;2023-02-26T04:31:59;3.53;;;1.80;;
10920;SDS011;5513;50.580;8.818;2023-02-26T04:34:28;5.03;;;2.00;;
10920;SDS011;5513;50.580;8.818;2023-02-26T04:36:58;3.83;;;1.57;;
10920;SDS011;5513;50.580;8.818;2023-02-26T04:39:26;5.20;;;1.70;;
10920;SDS011;5513;50.580;8.818;2023-02-26T04:41:54;3.60;;;1.70;;
10920;SDS011;5513;50.580;8.818;2023-02-26T04:44:23;3.23;;;2.03;;
10920;SDS011;5513;50.580;8.818;2023-02-26T04:46:51;5.90;;;1.93;;
10920;SDS011;5513;50.580;8.818;2023-02-26T04:49:20;5.43;;;1.80;;
10920;SDS011;5513;50.580;8.818;2023-02-26T04:51:48;3.93;;;1.73;;
10920;SDS011;5513;50.580;8.818;2023-02-26T04:54:18;3.63;;;1.70;;
10920;SDS011;5513;50.580;8.818;2023-02-26T04:56:46;3.37;;;1.50;;
10920;SDS011;5513;50.580;8.818;2023-02-26T04:59:14;3.67;;;1.63;;
10920;SDS011;5513;50.580;8.818;2023-02-26T05:01:43;5.57;;;1.83;;
10920;SDS011;5513;50.580;8.818;2023-02-26T05:04:11;4.40;;;1.60;;
10920;SDS011;5513;50.580;8.818;2023-02-26T05:06:41;3.93;;;2.00;;
10920;SDS011;5513;50.580;8.818;2023-02-26T05:09:09;2.97;;;1.83;;
10920;SDS011;5513;50.580;8.818;2023-02-26T05:11:39;5.23;;;1.87;;
10920;SDS011;5513;50.580;8.818;2023-02-26T05:14:08;6.23;;;1.63;;
10920;SDS011;5513;50.580;8.818;2023-02-26T05:16:36;4.77;;;1.80;;
10920;SDS011;5513;50.580;8.818;2023-02-26T05:19:05;3.00;;;1.67;;
10920;SDS011;5513;50.580;8.818;2023-02-26T05:21:34;3.17;;;1.60;;
10920;SDS011;5513;50.580;8.818;2023-02-26T05:24:03;3.63;;;1.60;;
10920;SDS011;5513;50.580;8.818;2023-02-26T05:26:34;4.17;;;1.70;;
10920;SDS011;5513;50.580;8.818;2023-02-26T05:29:03;7.20;;;2.00;;
10920;SDS011;5513;50.580;8.818;2023-02-26T05:31:32;4.17;;;2.20;;
10920;SDS011;5513;50.580;8.818;2023-02-26T05:34:00;4.03;;;1.70;;
10920;SDS011;5513;50.580;8.818;2023-02-26T05:36:28;2.90;;;1.70;;
10920;SDS011;5513;50.580;8.818;2023-02-26T05:38:57;3.00;;;1.60;;
10920;SDS011;5513;50.580;8.818;2023-02-26T05:41:26;3.30;;;1.50;;
10920;SDS011;5513;50.580;8.818;2023-02-26T05:43:54;3.13;;;1.73;;
10920;SDS011;5513;50.580;8.818;2023-02-26T05:46:24;3.80;;;1.60;;
10920;SDS011;5513;50.580;8.818;2023-02-26T05:48:53;3.63;;;1.70;;
10920;SDS011;5513;50.580;8.818;2023-02-26T05:51:21;2.67;;;1.67;;
10920;SDS011;5513;50.580;8.818;2023-02-26T05:53:49;3.30;;;1.70;;
10920;SDS011;5513;50.580;8.818;2023-02-26T05:56:18;2.60;;;1.70;;
10920;SDS011;5513;50.580;8.818;2023-02-26T05:58:46;2.50;;;1.43;;
10920;SDS011;5513;50.580;8.818;2023-02-26T06:01:14;3.63;;;1.80;;
10920;SDS011;5513;50.580;8.818;2023-02-26T06:03:44;4.07;;;1.97;;
10920;SDS011;5513;50.580;8.818;2023-02-26T06:06:13;5.20;;;2.17;;
10920;SDS011;5513;50.580;8.818;2023-02-26T06:08:44;2.63;;;2.00;;
10920;SDS011;5513;50.580;8.818;2023-02-26T06:11:12;4.13;;;2.00;;
10920;SDS011;5513;50.580;8.818;2023-02-26T06:13:41;6.67;;;2.27;;
10920;SDS011;5513;50.580;8.818;2023-02-26T06:16:11;3.53;;;2.20;;
10920;SDS011;5513;50.580;8.818;2023-02-26T06:18:39;5.30;;;2.10;;
10920;SDS011;5513;50.580;8.818;2023-02-26T06:21:08;3.20;;;2.03;;
10920;SDS011;5513;50.580;8.818;2023-02-26T06:23:37;7.40;;;1.93;;
10920;SDS011;5513;50.580;8.818;2023-02-26T06:26:05;6.07;;;2.47;;
10920;SDS011;5513;50.580;8.818;2023-02-26T06:28:33;3.70;;;2.20;;
10920;SDS011;5513;50.580;8.818;2023-02-26T06:31:02;5.10;;;2.30;;
10920;SDS011;5513;50.580;8.818;2023-02-26T06:33:31;3.23;;;2.07;;
10920;SDS011;5513;50.580;8.818;2023-02-26T06:35:59;3.80;;;2.03;;
10920;SDS011;5513;50.580;8.818;2023-02-26T06:38:29;2.97;;;2.07;;
10920;SDS011;5513;50.580;8.818;2023-02-26T06:40:58;4.47;;;2.10;;
10920;SDS011;5513;50.580;8.818;2023-02-26T06:43:26;2.77;;;2.00;;
10920;SDS011;5513;50.580;8.818;2023-02-26T06:45:56;6.50;;;2.23;;
10920;SDS011;5513;50.580;8.818;2023-02-26T06:48:24;6.27;;;2.37;;
10920;SDS011;5513;50.580;8.818;2023-02-26T06:50:53;5.67;;;2.20;;
10920;SDS011;5513;50.580;8.818;2023-02-26T06:53:21;3.43;;;1.80;;
10920;SDS011;5513;50.580;8.818;2023-02-26T06:55:52;2.30;;;2.00;;
10920;SDS011;5513;50.580;8.818;2023-02-26T06:58:22;2.93;;;2.20;;
10920;SDS011;5513;50.580;8.818;2023-02-26T07:00:51;5.07;;;2.03;;
10920;SDS011;5513;50.580;8.818;2023-02-26T07:03:20;5.43;;;2.23;;
10920;SDS011;5513;50.580;8.818;2023-02-26T07:05:48;4.03;;;2.27;;
10920;SDS011;5513;50.580;8.818;2023-02-26T07:08:16;4.03;;;2.47;;
10920;SDS011;5513;50.580;8.818;2023-02-26T07:10:45;3.03;;;2.40;;
10920;SDS011;5513;50.580;8.818;2023-02-26T07:13:17;5.37;;;2.47;;
10920;SDS011;5513;50.580;8.818;2023-02-26T07:15:46;4.00;;;2.30;;
10920;SDS011;5513;50.580;8.818;2023-02-26T07:18:14;5.17;;;2.10;;
10920;SDS011;5513;50.580;8.818;2023-02-26T07:20:43;4.40;;;2.50;;
10920;SDS011;5513;50.580;8.818;2023-02-26T07:23:12;14.13;;;11.33;;
10920;SDS011;5513;50.580;8.818;2023-02-26T07:25:40;32.40;;;27.40;;
10920;SDS011;5513;50.580;8.818;2023-02-26T07:28:08;19.23;;;17.20;;
10920;SDS011;5513;50.580;8.818;2023-02-26T07:30:38;6.87;;;4.77;;
10920;SDS011;5513;50.580;8.818;2023-02-26T07:33:08;5.50;;;4.23;;
10920;SDS011;5513;50.580;8.818;2023-02-26T07:35:39;4.77;;;3.03;;
10920;SDS011;5513;50.580;8.818;2023-02-26T07:38:07;7.53;;;3.63;;
10920;SDS011;5513;50.580;8.818;2023-02-26T07:40:36;3.37;;;2.17;;
10920;SDS011;5513;50.580;8.818;2023-02-26T07:43:04;5.43;;;2.80;;
10920;SDS011;5513;50.580;8.818;2023-02-26T07:45:32;5.30;;;2.50;;
10920;SDS011;5513;50.580;8.818;2023-02-26T07:48:03;4.80;;;2.23;;
10920;SDS011;5513;50.580;8.818;2023-02-26T07:50:31;9.00;;;2.53;;
10920;SDS011;5513;50.580;8.818;2023-02-26T07:53:00;4.00;;;2.20;;
10920;SDS011;5513;50.580;8.818;2023-02-26T07:55:28;4.83;;;2.93;;
10920;SDS011;5513;50.580;8.818;2023-02-26T07:57:56;4.30;;;3.00;;
10920;SDS011;5513;50.580;8.818;2023-02-26T08:00:25;3.13;;;2.27;;
10920;SDS011;5513;50.580;8.818;2023-02-26T08:02:53;9.70;;;3.00;;
10920;SDS011;5513;50.580;8.818;2023-02-26T08:05:22;6.00;;;2.70;;
10920;SDS011;5513;50.580;8.818;2023-02-26T08:07:53;9.10;;;5.00;;
10920;SDS011;5513;50.580;8.818;2023-02-26T08:10:21;6.20;;;4.17;;
10920;SDS011;5513;50.580;8.818;2023-02-26T08:12:50;4.40;;;3.10;;
10920;SDS011;5513;50.580;8.818;2023-02-26T08:15:18;3.13;;;2.10;;
10920;SDS011;5513;50.580;8.818;2023-02-26T08:17:47;9.20;;;4.43;;
10920;SDS011;5513;50.580;8.818;2023-02-26T08:20:18;7.53;;;4.93;;
10920;SDS011;5513;50.580;8.818;2023-02-26T08:22:48;4.37;;;3.77;;
10920;SDS011;5513;50.580;8.818;2023-02-26T08:25:17;3.63;;;2.93;;
10920;SDS011;5513;50.580;8.818;2023-02-26T08:27:45;5.30;;;3.70;;
10920;SDS011;5513;50.580;8.818;2023-02-26T08:30:14;2.53;;;1.77;;
10920;SDS011;5513;50.580;8.818;2023-02-26T08:32:42;2.70;;;2.00;;
10920;SDS011;5513;50.580;8.818;2023-02-26T08:35:12;4.00;;;1.50;;
10920;SDS011;5513;50.580;8.818;2023-02-26T08:37:40;4.67;;;1.50;;
10920;SDS011;5513;50.580;8.818;2023-02-26T08:40:13;2.70;;;1.40;;
10920;SDS011;5513;50.580;8.818;2023-02-26T08:42:41;2.97;;;1.60;;
10920;SDS011;5513;50.580;8.818;2023-02-26T08:45:10;2.13;;;1.40;;
10920;SDS011;5513;50.580;8.818;2023-02-26T08:47:38;2.93;;;1.57;;
10920;SDS011;5513;50.580;8.818;2023-02-26T08:50:21;4.60;;;2.00;;
10920;SDS011;5513;50.580;8.818;2023-02-26T08:52:50;18.70;;;12.23;;
10920;SDS011;5513;50.580;8.818;2023-02-26T08:55:22;37.17;;;21.37;;
10920;SDS011;5513;50.580;8.818;2023-02-26T08:57:50;28.80;;;15.57;;
10920;SDS011;5513;50.580;8.818;2023-02-26T09:00:19;29.23;;;15.20;;
10920;SDS011;5513;50.580;8.818;2023-02-26T09:02:48;10.77;;;6.90;;
10920;SDS011;5513;50.580;8.818;2023-02-26T09:05:17;5.40;;;3.60;;
10920;SDS011;5513;50.580;8.818;2023-02-26T09:07:45;4.13;;;2.60;;
10920;SDS011;5513;50.580;8.818;2023-02-26T09:10:14;2.30;;;1.73;;
10920;SDS011;5513;50.580;8.818;2023-02-26T09:12:44;6.33;;;3.43;;
10920;SDS011;5513;50.580;8.818;2023-02-26T09:15:12;4.37;;;2.77;;
10920;SDS011;5513;50.580;8.818;2023-02-26T09:17:41;2.93;;;1.40;;
10920;SDS011;5513;50.580;8.818;2023-02-26T09:20:10;3.07;;;1.47;;
10920;SDS011;5513;50.580;8.818;2023-02-26T09:22:39;10.33;;;4.70;;
10920;SDS011;5513;50.580;8.818;2023-02-26T09:25:08;2.67;;;2.07;;
10920;SDS011;5513;50.580;8.818;2023-02-26T09:27:37;3.47;;;2.00;;
10920;SDS011;5513;50.580;8.818;2023-02-26T09:30:08;3.60;;;2.20;;
10920;SDS011;5513;50.580;8.818;2023-02-26T09:32:37;1.93;;;1.40;;
10920;SDS011;5513;50.580;8.818;2023-02-26T09:35:06;2.93;;;1.63;;
10920;SDS011;5513;50.580;8.818;2023-02-26T09:37:35;4.80;;;3.33;;
10920;SDS011;5513;50.580;8.818;2023-02-26T09:40:04;1.67;;;1.40;;
10920;SDS011;5513;50.580;8.818;2023-02-26T09:42:40;2.37;;;1.40;;
10920;SDS011;5513;50.580;8.818;2023-02-26T09:45:24;2.37;;;1.33;;
10920;SDS011;5513;50.580;8.818;2023-02-26T09:47:57;3.10;;;1.37;;
10920;SDS011;5513;50.580;8.818;2023-02-26T09:50:31;3.03;;;1.87;;
10920;SDS011;5513;50.580;8.818;2023-02-26T09:53:08;4.50;;;2.40;;
10920;SDS011;5513;50.580;8.818;2023-02-26T09:55:41;3.50;;;1.90;;
10920;SDS011;5513;50.580;8.818;2023-02-26T09:58:14;3.53;;;1.90;;
10920;SDS011;5513;50.580;8.818;2023-02-26T10:00:50;2.57;;;1.73;;
10920;SDS011;5513;50.580;8.818;2023-02-26T10:03:26;1.97;;;1.40;;
10920;SDS011;5513;50.580;8.818;2023-02-26T10:06:12;2.60;;;1.40;;
10920;SDS011;5513;50.580;8.818;2023-02-26T10:08:50;2.37;;;1.30;;
10920;SDS011;5513;50.580;8.818;2023-02-26T10:11:30;3.00;;;1.40;;
10920;SDS011;5513;50.580;8.818;2023-02-26T10:14:03;3.77;;;1.50;;
10920;SDS011;5513;50.580;8.818;2023-02-26T10:16:40;3.70;;;1.80;;
10920;SDS011;5513;50.580;8.818;2023-02-26T10:19:15;3.40;;;1.90;;
10920;SDS011;5513;50.580;8.818;2023-02-26T10:21:47;3.53;;;1.60;;
10920;SDS011;5513;50.580;8.818;2023-02-26T10:24:19;3.57;;;1.70;;
10920;SDS011;5513;50.580;8.818;2023-02-26T10:26:53;3.13;;;1.60;;
10920;SDS011;5513;50.580;8.818;2023-02-26T10:29:27;2.07;;;1.30;;
10920;SDS011;5513;50.580;8.818;2023-02-26T10:32:08;3.70;;;1.80;;
10920;SDS011;5513;50.580;8.818;2023-02-26T10:34:50;3.67;;;2.00;;
10920;SDS011;5513;50.580;8.818;2023-02-26T10:37:23;2.87;;;2.00;;
10920;SDS011;5513;50.580;8.818;2023-02-26T10:40:03;4.43;;;2.00;;
10920;SDS011;5513;50.580;8.818;2023-02-26T10:42:41;4.57;;;2.23;;
10920;SDS011;5513;50.580;8.818;2023-02-26T10:45:21;5.57;;;2.80;;
10920;SDS011;5513;50.580;8.818;2023-02-26T10:48:03;3.70;;;1.70;;
10920;SDS011;5513;50.580;8.818;2023-02-26T10:50:41;3.60;;;1.80;;
10920;SDS011;5513;50.580;8.818;2023-02-26T10:53:16;4.37;;;1.93;;
10920;SDS011;5513;50.580;8.818;2023-02-26T10:55:46;5.43;;;1.93;;
10920;SDS011;5513;50.580;8.818;2023-02-26T10:58:20;3.13;;;2.10;;
10920;SDS011;5513;50.580;8.818;2023-02-26T11:00:50;2.67;;;1.77;;
10920;SDS011;5513;50.580;8.818;2023-02-26T11:03:26;3.33;;;1.50;;
10920;SDS011;5513;50.580;8.818;2023-02-26T11:05:59;1.70;;;1.20;;
10920;SDS011;5513;50.580;8.818;2023-02-26T11:08:29;4.03;;;1.60;;
10920;SDS011;5513;50.580;8.818;2023-02-26T11:11:01;1.70;;;1.33;;
10920;SDS011;5513;50.580;8.818;2023-02-26T11:13:32;2.33;;;1.30;;
10920;SDS011;5513;50.580;8.818;2023-02-26T11:16:09;2.23;;;1.20;;
10920;SDS011;5513;50.580;8.818;2023-02-26T11:18:45;1.83;;;1.27;;
10920;SDS011;5513;50.580;8.818;2023-02-26T11:21:17;1.50;;;1.27;;
10920;SDS011;5513;50.580;8.818;2023-02-26T11:23:49;1.63;;;1.20;;
10920;SDS011;5513;50.580;8.818;2023-02-26T11:26:25;3.00;;;1.53;;
10920;SDS011;5513;50.580;8.818;2023-02-26T11:28:57;3.27;;;1.67;;
10920;SDS011;5513;50.580;8.818;2023-02-26T11:31:26;3.73;;;1.10;;
10920;SDS011;5513;50.580;8.818;2023-02-26T11:34:00;9.10;;;3.90;;
10920;SDS011;5513;50.580;8.818;2023-02-26T11:36:32;2.13;;;1.27;;
10920;SDS011;5513;50.580;8.818;2023-02-26T11:39:04;3.57;;;2.27;;
10920;SDS011;5513;50.580;8.818;2023-02-26T11:41:36;7.30;;;2.03;;
10920;SDS011;5513;50.580;8.818;2023-02-26T11:44:07;12.20;;;6.03;;
10920;SDS011;5513;50.580;8.818;2023-02-26T11:46:41;6.03;;;3.57;;
10920;SDS011;5513;50.580;8.818;2023-02-26T11:49:15;36.73;;;17.47;;
10920;SDS011;5513;50.580;8.818;2023-02-26T11:51:46;11.17;;;6.07;;
10920;SDS011;5513;50.580;8.818;2023-02-26T11:54:28;6.47;;;5.00;;
10920;SDS011;5513;50.580;8.818;2023-02-26T11:56:59;7.03;;;5.00;;
10920;SDS011;5513;50.580;8.818;2023-02-26T11:59:30;6.47;;;5.23;;
10920;SDS011;5513;50.580;8.818;2023-02-26T12:02:01;5.63;;;3.50;;
10920;SDS011;5513;50.580;8.818;2023-02-26T12:04:41;5.83;;;4.23;;
10920;SDS011;5513;50.580;8.818;2023-02-26T12:07:11;5.57;;;3.33;;
10920;SDS011;5513;50.580;8.818;2023-02-26T12:09:44;3.03;;;2.73;;
10920;SDS011;5513;50.580;8.818;2023-02-26T12:15:15;3.07;;;2.67;;
10920;SDS011;5513;50.580;8.818;2023-02-26T12:17:57;4.20;;;2.70;;
10920;SDS011;5513;50.580;8.818;2023-02-26T12:20:37;2.73;;;1.80;;
10920;SDS011;5513;50.580;8.818;2023-02-26T12:23:16;2.17;;;1.90;;
10920;SDS011;5513;50.580;8.818;2023-02-26T12:26:04;2.97;;;1.60;;
10920;SDS011;5513;50.580;8.818;2023-02-26T12:28:54;4.33;;;3.17;;
10920;SDS011;5513;50.580;8.818;2023-02-26T12:31:57;5.53;;;3.93;;
10920;SDS011;5513;50.580;8.818;2023-02-26T12:34:59;2.60;;;2.00;;
10920;SDS011;5513;50.580;8.818;2023-02-26T12:37:47;1.40;;;1.17;;
10920;SDS011;5513;50.580;8.818;2023-02-26T12:40:35;3.53;;;2.27;;
10920;SDS011;5513;50.580;8.818;2023-02-26T12:43:32;1.73;;;1.13;;
10920;SDS011;5513;50.580;8.818;2023-02-26T12:46:09;2.73;;;1.30;;
10920;SDS011;5513;50.580;8.818;2023-02-26T12:48:53;2.90;;;2.17;;
10920;SDS011;5513;50.580;8.818;2023-02-26T12:51:41;5.00;;;2.80;;
10920;SDS011;5513;50.580;8.818;2023-02-26T12:54:31;8.00;;;5.30;;
10920;SDS011;5513;50.580;8.818;2023-02-26T12:57:14;2.90;;;2.03;;
10920;SDS011;5513;50.580;8.818;2023-02-26T13:00:01;7.10;;;4.50;;
10920;SDS011;5513;50.580;8.818;2023-02-26T13:03:00;3.37;;;2.50;;
10920;SDS011;5513;50.580;8.818;2023-02-26T13:05:49;2.23;;;1.20;;
10920;SDS011;5513;50.580;8.818;2023-02-26T13:08:27;3.77;;;1.70;;
10920;SDS011;5513;50.580;8.818;2023-02-26T13:11:09;3.53;;;1.50;;
10920;SDS011;5513;50.580;8.818;2023-02-26T13:13:50;1.83;;;1.10;;
10920;SDS011;5513;50.580;8.818;2023-02-26T13:16:29;1.90;;;0.97;;
10920;SDS011;5513;50.580;8.818;2023-02-26T13:19:07;2.20;;;1.20;;
10920;SDS011;5513;50.580;8.818;2023-02-26T13:21:47;3.13;;;1.10;;
10920;SDS011;5513;50.580;8.818;2023-02-26T13:24:23;1.40;;;1.30;;
10920;SDS011;5513;50.580;8.818;2023-02-26T13:26:56;2.10;;;0.80;;
10920;SDS011;5513;50.580;8.818;2023-02-26T13:29:26;1.43;;;0.93;;
10920;SDS011;5513;50.580;8.818;2023-02-26T13:31:59;3.63;;;1.87;;
10920;SDS011;5513;50.580;8.818;2023-02-26T13:34:34;2.13;;;1.30;;
10920;SDS011;5513;50.580;8.818;2023-02-26T13:37:11;2.93;;;1.90;;
10920;SDS011;5513;50.580;8.818;2023-02-26T13:39:50;2.83;;;1.60;;
10920;SDS011;5513;50.580;8.818;2023-02-26T13:42:47;1.70;;;0.90;;
10920;SDS011;5513;50.580;8.818;2023-02-26T13:45:22;3.40;;;1.27;;
10920;SDS011;5513;50.580;8.818;2023-02-26T13:48:06;1.77;;;1.10;;
10920;SDS011;5513;50.580;8.818;2023-02-26T13:50:48;4.07;;;1.70;;
10920;SDS011;5513;50.580;8.818;2023-02-26T13:53:35;2.30;;;1.33;;
10920;SDS011;5513;50.580;8.818;2023-02-26T13:56:13;2.80;;;1.33;;
10920;SDS011;5513;50.580;8.818;2023-02-26T13:58:47;2.97;;;1.30;;
10920;SDS011;5513;50.580;8.818;2023-02-26T14:01:19;3.87;;;1.30;;
10920;SDS011;5513;50.580;8.818;2023-02-26T14:04:05;2.93;;;1.10;;
10920;SDS011;5513;50.580;8.818;2023-02-26T14:06:37;3.20;;;0.90;;
10920;SDS011;5513;50.580;8.818;2023-02-26T14:12:02;0.80;;;0.70;;
10920;SDS011;5513;50.580;8.818;2023-02-26T14:15:17;2.40;;;0.80;;
10920;SDS011;5513;50.580;8.818;2023-02-26T14:18:03;3.47;;;1.27;;
10920;SDS011;5513;50.580;8.818;2023-02-26T14:20:34;1.33;;;0.87;;
10920;SDS011;5513;50.580;8.818;2023-02-26T14:23:13;1.47;;;1.00;;
10920;SDS011;5513;50.580;8.818;2023-02-26T14:26:14;1.20;;;0.70;;
10920;SDS011;5513;50.580;8.818;2023-02-26T14:28:53;2.40;;;1.03;;
10920;SDS011;5513;50.580;8.818;2023-02-26T14:31:24;2.00;;;0.80;;
10920;SDS011;5513;50.580;8.818;2023-02-26T14:34:10;1.43;;;0.90;;
10920;SDS011;5513;50.580;8.818;2023-02-26T14:36:43;8.70;;;5.13;;
10920;SDS011;5513;50.580;8.818;2023-02-26T14:39:21;11.40;;;6.70;;
10920;SDS011;5513;50.580;8.818;2023-02-26T14:41:54;10.67;;;6.57;;
10920;SDS011;5513;50.580;8.818;2023-02-26T14:44:27;8.97;;;5.13;;
10920;SDS011;5513;50.580;8.818;2023-02-26T14:46:58;27.93;;;16.10;;
10920;SDS011;5513;50.580;8.818;2023-02-26T14:49:29;32.60;;;21.00;;
10920;SDS011;5513;50.580;8.818;2023-02-26T14:52:10;17.37;;;12.10;;
10920;SDS011;5513;50.580;8.818;2023-02-26T14:55:09;10.33;;;7.90;;
10920;SDS011;5513;50.580;8.818;2023-02-26T14:57:58;2.07;;;1.40;;
10920;SDS011;5513;50.580;8.818;2023-02-26T15:00:40;1.23;;;1.03;;
10920;SDS011;5513;50.580;8.818;2023-02-26T15:03:28;7.50;;;6.80;;
10920;SDS011;5513;50.580;8.818;2023-02-26T15:06:24;7.57;;;6.87;;
10920;SDS011;5513;50.580;8.818;2023-02-26T15:09:09;9.93;;;8.90;;
10920;SDS011;5513;50.580;8.818;2023-02-26T15:14:49;3.70;;;1.70;;
10920;SDS011;5513;50.580;8.818;2023-02-26T15:17:43;3.00;;;1.23;;
10920;SDS011;5513;50.580;8.818;2023-02-26T15:20:22;4.03;;;1.30;;
10920;SDS011;5513;50.580;8.818;2023-02-26T15:23:02;2.20;;;1.10;;
10920;SDS011;5513;50.580;8.818;2023-02-26T15:25:42;2.27;;;1.00;;
10920;SDS011;5513;50.580;8.818;2023-02-26T15:28:15;1.27;;;1.10;;
10920;SDS011;5513;50.580;8.818;2023-02-26T15:30:49;2.43;;;1.30;;
10920;SDS011;5513;50.580;8.818;2023-02-26T15:33:19;1.90;;;1.00;;
10920;SDS011;5513;50.580;8.818;2023-02-26T15:35:50;2.07;;;1.30;;
10920;SDS011;5513;50.580;8.818;2023-02-26T15:38:21;4.23;;;1.67;;
10920;SDS011;5513;50.580;8.818;2023-02-26T15:40:51;7.10;;;4.73;;
10920;SDS011;5513;50.580;8.818;2023-02-26T15:43:22;3.63;;;3.13;;
10920;SDS011;5513;50.580;8.818;2023-02-26T15:45:54;5.10;;;4.30;;
10920;SDS011;5513;50.580;8.818;2023-02-26T15:48:28;3.90;;;3.13;;
10920;SDS011;5513;50.580;8.818;2023-02-26T15:50:59;6.07;;;2.60;;
10920;SDS011;5513;50.580;8.818;2023-02-26T15:53:33;4.07;;;2.50;;
10920;SDS011;5513;50.580;8.818;2023-02-26T15:56:05;2.70;;;2.00;;